Time,TemperatureF,DewpointF,PressureIn,WindDirection,WindDirectionDegrees,WindSpeedMPH,WindSpeedGustMPH,Humidity,HourlyPrecipIn,Conditions,Clouds,dailyrainin,SoftwareType,DateUTC
2013-10-29 00:01:00,46.1,31.0,29.79,NE,46,0.0,-999.0,55,-99.99,,,0.00,weatherlink.com 1.10,2013-10-29 07:01:00,
2013-10-29 00:16:00,46.1,30.0,29.79,NE,34,1.0,-999.0,54,-99.99,,,0.00,weatherlink.com 1.10,2013-10-29 07:16:00,
2013-10-29 00:31:00,46.0,30.0,29.79,NE,40,2.0,-999.0,55,-99.99,,,0.00,weatherlink.com 1.10,2013-10-29 07:31:00,
2013-10-29 00:46:00,45.7,31.0,29.79,NE,42,0.0,-999.0,56,-99.99,,,0.00,weatherlink.com 1.10,2013-10-29 07:46:00,
2013-10-29 01:01:00,45.4,30.0,29.80,NE,35,1.0,-999.0,56,-99.99,,,0.00,weatherlink.com 1.10,2013-10-29 08:01:00,
2013-10-29 01:16:00,44.8,31.0,29.80,NE,38,0.0,-999.0,58,-99.99,,,0.00,weatherlink.com 1.10,2013-10-29 08:16:00,
2013-10-29 01:31:00,45.7,30.0,29.80,NNE,30,3.0,-999.0,55,-99.99,,,0.00,weatherlink.com 1.10,2013-10-29 08:31:00,
2013-10-29 01:46:00,45.7,30.0,29.80,NE,46,0.0,-999.0,54,-99.99,,,0.00,weatherlink.com 1.10,2013-10-29 08:46:00,
2013-10-29 02:01:00,45.5,30.0,29.80,NE,45,0.0,-999.0,54,-99.99,,,0.00,weatherlink.com 1.10,2013-10-29 09:01:00,
2013-10-29 02:16:00,44.6,30.0,29.81,NE,36,0.0,-999.0,57,-99.99,,,0.00,weatherlink.com 1.10,2013-10-29 09:16:00,
2013-10-29 02:31:00,42.1,32.0,29.81,NE,36,0.0,-999.0,67,-99.99,,,0.00,weatherlink.com 1.10,2013-10-29 09:31:00,
2013-10-29 02:46:00,41.5,30.0,29.81,NE,36,0.0,-999.0,65,-99.99,,,0.00,weatherlink.com 1.10,2013-10-29 09:46:00,
2013-10-29 03:01:00,41.3,31.0,29.82,NE,35,0.0,-999.0,68,-99.99,,,0.00,weatherlink.com 1.10,2013-10-29 10:01:00,
2013-10-29 03:16:00,40.2,33.0,29.82,East,90,0.0,-999.0,74,-99.99,,,0.00,weatherlink.com 1.10,2013-10-29 10:16:00,
2013-10-29 03:31:00,39.2,33.0,29.82,East,90,0.0,-999.0,77,-99.99,,,0.00,weatherlink.com 1.10,2013-10-29 10:31:00,
2013-10-29 03:46:00,38.0,32.0,29.81,East,90,0.0,-999.0,80,-99.99,,,0.00,weatherlink.com 1.10,2013-10-29 10:46:00,
2013-10-29 04:01:00,39.1,33.0,29.81,East,101,0.0,-999.0,79,-99.99,,,0.00,weatherlink.com 1.10,2013-10-29 11:01:00,
2013-10-29 04:16:00,38.5,33.0,29.82,East,101,0.0,-999.0,79,-99.99,,,0.00,weatherlink.com 1.10,2013-10-29 11:16:00,
2013-10-29 04:31:00,38.2,32.0,29.82,East,101,0.0,-999.0,79,-99.99,,,0.00,weatherlink.com 1.10,2013-10-29 11:31:00,
2013-10-29 04:46:00,38.2,32.0,29.82,East,101,0.0,-999.0,79,-99.99,,,0.00,weatherlink.com 1.10,2013-10-29 11:46:00,
2013-10-29 05:01:00,37.6,32.0,29.83,East,101,0.0,-999.0,81,-99.99,,,0.00,weatherlink.com 1.10,2013-10-29 12:01:00,
2013-10-29 05:16:00,37.0,32.0,29.83,East,101,0.0,-999.0,82,-99.99,,,0.00,weatherlink.com 1.10,2013-10-29 12:16:00,
2013-10-29 05:31:00,37.0,32.0,29.84,East,101,0.0,-999.0,81,-99.99,,,0.00,weatherlink.com 1.10,2013-10-29 12:31:00,
2013-10-29 05:46:00,37.0,32.0,29.84,East,101,0.0,-999.0,82,-99.99,,,0.00,weatherlink.com 1.10,2013-10-29 12:46:00,
2013-10-29 06:01:00,37.0,31.0,29.84,East,101,0.0,-999.0,80,-99.99,,,0.00,weatherlink.com 1.10,2013-10-29 13:01:00,
2013-10-29 06:16:00,37.2,32.0,29.84,East,101,0.0,-999.0,80,-99.99,,,0.00,weatherlink.com 1.10,2013-10-29 13:16:00,
2013-10-29 06:31:00,37.0,32.0,29.84,SSE,153,0.0,-999.0,81,-99.99,,,0.00,weatherlink.com 1.10,2013-10-29 13:31:00,
2013-10-29 06:46:00,35.9,32.0,29.84,SSE,153,0.0,-999.0,85,-99.99,,,0.00,weatherlink.com 1.10,2013-10-29 13:46:00,
2013-10-29 07:01:00,35.5,31.0,29.85,SSE,153,0.0,-999.0,85,-99.99,,,0.00,weatherlink.com 1.10,2013-10-29 14:01:00,
2013-10-29 07:16:00,34.6,31.0,29.86,SSE,153,0.0,-999.0,88,-99.99,,,0.00,weatherlink.com 1.10,2013-10-29 14:16:00,
2013-10-29 07:31:00,34.0,31.0,29.86,SSE,153,0.0,-999.0,88,-99.99,,,0.00,weatherlink.com 1.10,2013-10-29 14:31:00,
2013-10-29 07:46:00,33.4,31.0,29.86,SSE,153,0.0,-999.0,91,-99.99,,,0.00,weatherlink.com 1.10,2013-10-29 14:46:00,
2013-10-29 08:01:00,33.4,31.0,29.86,SSE,153,0.0,-999.0,92,-99.99,,,0.00,weatherlink.com 1.10,2013-10-29 15:01:00,
2013-10-29 08:16:00,33.8,32.0,29.87,SSE,153,0.0,-999.0,91,-99.99,,,0.00,weatherlink.com 1.10,2013-10-29 15:16:00,
2013-10-29 08:31:00,34.3,32.0,29.87,SSE,153,0.0,-999.0,91,-99.99,,,0.00,weatherlink.com 1.10,2013-10-29 15:31:00,
2013-10-29 08:46:00,34.6,32.0,29.88,SSE,153,0.0,-999.0,90,-99.99,,,0.00,weatherlink.com 1.10,2013-10-29 15:46:00,
2013-10-29 09:01:00,34.6,32.0,29.89,SSE,153,0.0,-999.0,90,-99.99,,,0.00,weatherlink.com 1.10,2013-10-29 16:01:00,
2013-10-29 09:16:00,35.0,32.0,29.89,SSE,153,0.0,-999.0,89,-99.99,,,0.00,weatherlink.com 1.10,2013-10-29 16:16:00,
2013-10-29 09:31:00,35.9,33.0,29.89,SSE,153,0.0,-999.0,90,-99.99,,,0.00,weatherlink.com 1.10,2013-10-29 16:31:00,
2013-10-29 09:45:00,36.2,33.0,29.90,SSE,153,0.0,-999.0,88,-99.99,,,0.00,weatherlink.com 1.10,2013-10-29 16:45:00,
2013-10-29 10:00:00,36.6,33.0,29.90,SSE,153,0.0,-999.0,85,-99.99,,,0.00,weatherlink.com 1.10,2013-10-29 17:00:00,
2013-10-29 10:17:00,38.0,34.0,29.91,SSE,154,0.0,-999.0,84,-99.99,,,0.00,weatherlink.com 1.10,2013-10-29 17:17:00,
2013-10-29 10:31:00,39.2,34.0,29.91,SSE,154,0.0,-999.0,81,-99.99,,,0.00,weatherlink.com 1.10,2013-10-29 17:31:00,
2013-10-29 10:47:00,41.3,35.0,29.91,SSE,154,0.0,-999.0,77,-99.99,,,0.00,weatherlink.com 1.10,2013-10-29 17:47:00,
2013-10-29 11:00:00,43.5,35.0,29.91,ENE,76,0.0,-999.0,71,-99.99,,,0.00,weatherlink.com 1.10,2013-10-29 18:00:00,
2013-10-29 11:17:00,43.9,34.0,29.91,ENE,76,0.0,-999.0,69,-99.99,,,0.00,weatherlink.com 1.10,2013-10-29 18:17:00,
2013-10-29 11:30:00,44.8,36.0,29.91,ENE,76,0.0,-999.0,70,-99.99,,,0.00,weatherlink.com 1.10,2013-10-29 18:30:00,
2013-10-29 11:45:00,45.8,36.0,29.91,ENE,77,0.0,-999.0,68,-99.99,,,0.00,weatherlink.com 1.10,2013-10-29 18:45:00,
2013-10-29 12:00:00,47.7,37.0,29.91,NE,40,0.0,-999.0,66,-99.99,,,0.00,weatherlink.com 1.10,2013-10-29 19:00:00,
2013-10-29 12:16:00,48.6,38.0,29.91,ENE,72,0.0,-999.0,66,-99.99,,,0.00,weatherlink.com 1.10,2013-10-29 19:16:00,
2013-10-29 12:30:00,49.8,37.0,29.90,NNE,30,0.0,-999.0,61,-99.99,,,0.00,weatherlink.com 1.10,2013-10-29 19:30:00,
2013-10-29 12:45:00,50.4,35.0,29.90,NE,36,2.0,-999.0,56,-99.99,,,0.00,weatherlink.com 1.10,2013-10-29 19:45:00,
2013-10-29 13:00:00,51.4,34.0,29.90,NNE,27,0.0,-999.0,52,-99.99,,,0.00,weatherlink.com 1.10,2013-10-29 20:00:00,
2013-10-29 13:15:00,52.3,34.0,29.90,NE,44,0.0,-999.0,51,-99.99,,,0.00,weatherlink.com 1.10,2013-10-29 20:15:00,
2013-10-29 13:30:00,52.9,35.0,29.89,NE,44,0.0,-999.0,50,-99.99,,,0.00,weatherlink.com 1.10,2013-10-29 20:30:00,
2013-10-29 13:46:00,52.6,33.0,29.89,ESE,103,2.0,-999.0,48,-99.99,,,0.00,weatherlink.com 1.10,2013-10-29 20:46:00,
2013-10-29 14:00:00,52.6,35.0,29.89,NE,42,1.0,-999.0,51,-99.99,,,0.00,weatherlink.com 1.10,2013-10-29 21:00:00,
2013-10-29 14:16:00,52.8,33.0,29.88,East,92,0.0,-999.0,47,-99.99,,,0.00,weatherlink.com 1.10,2013-10-29 21:16:00,
2013-10-29 14:31:00,52.9,32.0,29.88,ESE,104,0.0,-999.0,45,-99.99,,,0.00,weatherlink.com 1.10,2013-10-29 21:31:00,
2013-10-29 14:46:00,53.2,32.0,29.88,East,96,0.0,-999.0,45,-99.99,,,0.00,weatherlink.com 1.10,2013-10-29 21:46:00,
2013-10-29 15:01:00,53.2,32.0,29.88,East,81,0.0,-999.0,44,-99.99,,,0.00,weatherlink.com 1.10,2013-10-29 22:01:00,
2013-10-29 15:16:00,53.5,31.0,29.88,East,85,0.0,-999.0,42,-99.99,,,0.00,weatherlink.com 1.10,2013-10-29 22:16:00,
2013-10-29 15:31:00,52.9,31.0,29.88,East,85,0.0,-999.0,43,-99.99,,,0.00,weatherlink.com 1.10,2013-10-29 22:31:00,
2013-10-29 15:46:00,53.2,32.0,29.88,ESE,103,0.0,-999.0,44,-99.99,,,0.00,weatherlink.com 1.10,2013-10-29 22:46:00,
2013-10-29 16:00:00,53.3,31.0,29.88,NNE,19,0.0,-999.0,42,-99.99,,,0.00,weatherlink.com 1.10,2013-10-29 23:00:00,
2013-10-29 16:16:00,52.9,32.0,29.88,NE,44,1.0,-999.0,45,-99.99,,,0.00,weatherlink.com 1.10,2013-10-29 23:16:00,
2013-10-29 16:31:00,53.5,32.0,29.88,NE,44,0.0,-999.0,44,-99.99,,,0.00,weatherlink.com 1.10,2013-10-29 23:31:00,
2013-10-29 16:46:00,52.9,31.0,29.88,NE,44,0.0,-999.0,44,-99.99,,,0.00,weatherlink.com 1.10,2013-10-29 23:46:00,
2013-10-29 17:00:00,53.5,31.0,29.88,NNE,32,0.0,-999.0,42,-99.99,,,0.00,weatherlink.com 1.10,2013-10-30 00:00:00,
2013-10-29 17:16:00,53.2,30.0,29.88,NNE,32,0.0,-999.0,42,-99.99,,,0.00,weatherlink.com 1.10,2013-10-30 00:16:00,
2013-10-29 17:31:00,52.9,31.0,29.88,NNE,31,0.0,-999.0,43,-99.99,,,0.00,weatherlink.com 1.10,2013-10-30 00:31:00,
2013-10-29 17:46:00,52.2,31.0,29.88,NNE,31,0.0,-999.0,44,-99.99,,,0.00,weatherlink.com 1.10,2013-10-30 00:46:00,
2013-10-29 18:00:00,51.1,31.0,29.88,NNE,31,0.0,-999.0,47,-99.99,,,0.00,weatherlink.com 1.10,2013-10-30 01:00:00,
2013-10-29 18:16:00,50.1,31.0,29.88,NNE,32,0.0,-999.0,49,-99.99,,,0.00,weatherlink.com 1.10,2013-10-30 01:16:00,
2013-10-29 18:31:00,49.2,30.0,29.89,NNE,31,0.0,-999.0,48,-99.99,,,0.00,weatherlink.com 1.10,2013-10-30 01:31:00,
2013-10-29 18:46:00,48.3,29.0,29.89,NNE,31,0.0,-999.0,48,-99.99,,,0.00,weatherlink.com 1.10,2013-10-30 01:46:00,
2013-10-29 19:01:00,48.5,29.0,29.89,NNE,31,0.0,-999.0,48,-99.99,,,0.00,weatherlink.com 1.10,2013-10-30 02:01:00,
2013-10-29 19:16:00,49.2,29.0,29.90,NNE,31,0.0,-999.0,46,-99.99,,,0.00,weatherlink.com 1.10,2013-10-30 02:16:00,
2013-10-29 19:31:00,48.9,29.0,29.90,NNE,31,0.0,-999.0,47,-99.99,,,0.00,weatherlink.com 1.10,2013-10-30 02:31:00,
2013-10-29 19:46:00,49.1,29.0,29.90,NNE,31,0.0,-999.0,47,-99.99,,,0.00,weatherlink.com 1.10,2013-10-30 02:46:00,
2013-10-29 20:01:00,48.8,30.0,29.90,NNE,32,0.0,-999.0,48,-99.99,,,0.00,weatherlink.com 1.10,2013-10-30 03:01:00,
2013-10-29 20:16:00,49.1,30.0,29.91,NNE,32,0.0,-999.0,49,-99.99,,,0.00,weatherlink.com 1.10,2013-10-30 03:16:00,
2013-10-29 20:31:00,49.4,30.0,29.91,NNE,32,0.0,-999.0,48,-99.99,,,0.00,weatherlink.com 1.10,2013-10-30 03:31:00,
2013-10-29 20:46:00,48.8,32.0,29.91,NNE,31,0.0,-999.0,52,-99.99,,,0.00,weatherlink.com 1.10,2013-10-30 03:46:00,
2013-10-29 21:01:00,48.6,31.0,29.91,NNE,31,0.0,-999.0,50,-99.99,,,0.00,weatherlink.com 1.10,2013-10-30 04:01:00,
2013-10-29 21:16:00,48.9,30.0,29.92,NNE,31,0.0,-999.0,48,-99.99,,,0.00,weatherlink.com 1.10,2013-10-30 04:16:00,
2013-10-29 21:31:00,48.8,30.0,29.92,NNE,32,0.0,-999.0,48,-99.99,,,0.00,weatherlink.com 1.10,2013-10-30 04:31:00,
2013-10-29 21:46:00,48.9,30.0,29.93,NNE,31,0.0,-999.0,48,-99.99,,,0.00,weatherlink.com 1.10,2013-10-30 04:46:00,
2013-10-29 22:01:00,49.2,30.0,29.93,NNE,31,0.0,-999.0,48,-99.99,,,0.00,weatherlink.com 1.10,2013-10-30 05:01:00,
2013-10-29 22:15:00,49.5,30.0,29.94,NNE,31,0.0,-999.0,48,-99.99,,,0.00,weatherlink.com 1.10,2013-10-30 05:15:00,
2013-10-29 22:31:00,48.0,30.0,29.94,NNE,31,0.0,-999.0,51,-99.99,,,0.00,weatherlink.com 1.10,2013-10-30 05:31:00,
2013-10-29 22:46:00,43.9,32.0,29.94,NNE,32,0.0,-999.0,64,-99.99,,,0.00,weatherlink.com 1.10,2013-10-30 05:46:00,
2013-10-29 23:00:00,42.5,33.0,29.95,NNE,32,0.0,-999.0,69,-99.99,,,0.00,weatherlink.com 1.10,2013-10-30 06:00:00,
2013-10-29 23:16:00,41.6,34.0,29.95,NNE,32,0.0,-999.0,73,-99.99,,,0.00,weatherlink.com 1.10,2013-10-30 06:16:00,
2013-10-29 23:30:00,40.8,33.0,29.96,NNE,31,0.0,-999.0,75,-99.99,,,0.00,weatherlink.com 1.10,2013-10-30 06:30:00,
2013-10-29 23:45:00,39.9,34.0,29.95,NNE,31,0.0,-999.0,78,-99.99,,,0.00,weatherlink.com 1.10,2013-10-30 06:45:00,